Time;durP1;ratioP1;P1;durP2;ratioP2;P2;SDS_P1;SDS_P2;PMS_P1;PMS_P2;Temp;Humidity;BMP_temperature;BMP_pressure;BME280_temperature;BME280_humidity;BME280_pressure;Samples;Min_cycle;Max_cycle;Signal;HPM_P1;HPM_P2
2024/02/19 00:00:11;;;;;;;0.30;0.30;;;8.80;99.90;;;;;;5067243;28;20029;-72
2024/02/19 00:02:40;;;;;;;0.40;0.40;;;8.90;99.90;;;;;;5063969;28;20036;-72
2024/02/19 00:05:07;;;;;;;0.10;0.10;;;9.00;99.90;;;;;;5064926;28;20036;-72
2024/02/19 00:07:33;;;;;;;0.47;0.47;;;9.10;99.90;;;;;;5062509;28;20057;-72
2024/02/19 00:09:59;;;;;;;1.23;0.85;;;9.10;99.90;;;;;;5054217;28;20028;-74
2024/02/19 00:12:25;;;;;;;0.20;0.20;;;9.20;99.90;;;;;;5061035;28;20036;-72
2024/02/19 00:14:52;;;;;;;0.75;0.57;;;9.20;99.90;;;;;;5053446;28;20380;-71
2024/02/19 00:17:18;;;;;;;1.42;1.00;;;9.20;99.90;;;;;;5051450;28;20041;-72
2024/02/19 00:19:44;;;;;;;0.10;0.10;;;9.30;99.90;;;;;;5063633;28;20135;-72
2024/02/19 00:22:10;;;;;;;0.30;0.30;;;9.30;99.90;;;;;;5059200;28;20469;-72
2024/02/19 00:24:39;;;;;;;0.10;0.10;;;9.30;99.90;;;;;;5064414;28;20715;-72
2024/02/19 00:27:05;;;;;;;0.20;0.20;;;9.30;99.90;;;;;;5063104;28;20037;-71
2024/02/19 00:29:31;;;;;;;0.30;0.28;;;9.30;99.90;;;;;;5065019;28;20037;-72
2024/02/19 00:31:57;;;;;;;0.20;0.20;;;9.30;99.90;;;;;;5061894;28;20040;-71
2024/02/19 00:34:24;;;;;;;0.10;0.10;;;9.40;99.90;;;;;;5050431;28;20032;-72
2024/02/19 00:36:50;;;;;;;0.15;0.15;;;9.40;96.20;;;;;;5065923;28;20489;-71
2024/02/19 00:39:16;;;;;;;0.10;0.10;;;9.40;94.70;;;;;;5067285;28;20024;-72
2024/02/19 00:41:43;;;;;;;0.10;0.10;;;9.40;99.90;;;;;;5059878;28;20055;-72
2024/02/19 00:44:09;;;;;;;11.88;0.90;;;9.40;99.90;;;;;;5061510;28;20568;-72
2024/02/19 00:46:35;;;;;;;0.10;0.10;;;9.40;99.90;;;;;;5065100;28;20051;-73
2024/02/19 00:49:01;;;;;;;0.20;0.20;;;9.40;99.90;;;;;;5065002;28;20044;-72
2024/02/19 00:51:28;;;;;;;0.10;0.10;;;9.40;99.90;;;;;;5061806;28;20032;-72
2024/02/19 00:53:54;;;;;;;0.73;0.73;;;9.40;99.90;;;;;;5037744;28;20032;-72
2024/02/19 00:56:20;;;;;;;0.20;0.20;;;9.50;99.90;;;;;;5064896;28;20454;-73
2024/02/19 00:58:46;;;;;;;0.20;0.20;;;9.50;99.90;;;;;;5065211;28;20040;-72
2024/02/19 01:01:13;;;;;;;0.70;0.70;;;9.60;89.00;;;;;;5062263;28;20033;-73
2024/02/19 01:03:39;;;;;;;0.30;0.30;;;9.60;67.60;;;;;;5060767;28;20032;-72
2024/02/19 01:06:05;;;;;;;0.43;0.28;;;9.70;55.30;;;;;;5067070;28;20040;-72
2024/02/19 01:08:31;;;;;;;0.38;0.38;;;9.70;46.20;;;;;;5063872;28;20489;-72
2024/02/19 01:10:58;;;;;;;0.30;0.30;;;9.70;27.10;;;;;;5065401;28;20035;-73
2024/02/19 01:13:24;;;;;;;0.38;0.35;;;9.80;21.30;;;;;;5060996;28;20033;-72
2024/02/19 01:15:50;;;;;;;0.32;0.32;;;9.80;22.50;;;;;;5061750;28;20481;-72
2024/02/19 01:18:16;;;;;;;0.28;0.28;;;9.80;19.20;;;;;;5051908;28;20045;-73
2024/02/19 01:20:43;;;;;;;0.10;0.10;;;9.80;13.40;;;;;;5064867;28;20033;-72
2024/02/19 01:23:09;;;;;;;0.10;0.10;;;9.80;12.20;;;;;;5059383;28;20033;-74
2024/02/19 01:25:35;;;;;;;1.33;0.77;;;9.80;6.50;;;;;;5056655;28;20040;-71
2024/02/19 01:28:01;;;;;;;0.20;0.20;;;9.90;1.00;;;;;;5036699;28;20060;-71
2024/02/19 01:30:28;;;;;;;0.47;0.30;;;9.90;1.00;;;;;;5064812;28;20037;-72
2024/02/19 01:32:54;;;;;;;1.98;1.33;;;9.90;1.00;;;;;;5063086;28;20388;-73
2024/02/19 01:35:22;;;;;;;0.28;0.28;;;9.90;1.00;;;;;;5043104;28;20047;-75
2024/02/19 01:37:48;;;;;;;0.47;0.47;;;9.90;1.00;;;;;;5062796;28;20043;-72
2024/02/19 01:40:14;;;;;;;0.30;0.30;;;9.90;1.00;;;;;;5065064;28;20044;-72
2024/02/19 01:42:41;;;;;;;0.57;0.57;;;9.90;1.00;;;;;;5063341;28;20369;-72
2024/02/19 01:45:24;;;;;;;0.30;0.30;;;9.90;1.00;;;;;;5058199;28;20049;-73
2024/02/19 01:47:50;;;;;;;2.40;0.82;;;9.90;1.00;;;;;;5044950;28;20045;-73
2024/02/19 01:50:16;;;;;;;0.30;0.30;;;9.90;1.00;;;;;;5062240;28;20028;-71
2024/02/19 01:52:44;;;;;;;0.52;0.52;;;9.90;1.00;;;;;;5063925;28;20040;-72
2024/02/19 01:55:11;;;;;;;0.10;0.10;;;9.90;1.00;;;;;;5059287;28;20036;-72
2024/02/19 01:57:39;;;;;;;0.38;0.30;;;9.90;1.00;;;;;;5056774;28;20041;-72
2024/02/19 02:00:08;;;;;;;0.32;0.32;;;9.90;1.00;;;;;;5062326;28;20037;-72
2024/02/19 02:02:39;;;;;;;0.17;0.13;;;10.00;1.00;;;;;;5070641;28;20032;-72
2024/02/19 02:05:05;;;;;;;0.55;0.35;;;10.00;1.00;;;;;;5061500;28;20029;-72
2024/02/19 02:07:32;;;;;;;0.88;0.30;;;10.00;1.00;;;;;;5061512;28;20103;-72
2024/02/19 02:10:02;;;;;;;0.15;0.15;;;10.00;1.00;;;;;;5062290;28;20469;-72
2024/02/19 02:12:28;;;;;;;0.23;0.23;;;10.00;1.00;;;;;;5064439;28;20033;-73
2024/02/19 02:14:54;;;;;;;0.10;0.10;;;10.00;1.00;;;;;;5062473;28;20274;-72
2024/02/19 02:17:21;;;;;;;0.40;0.40;;;10.10;1.00;;;;;;5056638;28;20362;-72
2024/02/19 02:19:47;;;;;;;0.30;0.30;;;10.00;1.00;;;;;;5062568;28;20040;-72
2024/02/19 02:22:13;;;;;;;0.20;0.20;;;10.00;1.00;;;;;;5062693;28;20044;-72
2024/02/19 02:24:40;;;;;;;0.40;0.20;;;10.00;1.00;;;;;;5053955;28;20044;-72
2024/02/19 02:27:08;;;;;;;0.10;0.10;;;10.00;1.00;;;;;;5058686;28;20040;-72
2024/02/19 02:29:36;;;;;;;0.32;0.32;;;10.00;1.00;;;;;;5063514;28;20032;-72
2024/02/19 02:32:02;;;;;;;0.30;0.30;;;10.00;1.00;;;;;;5050553;28;20041;-72
2024/02/19 02:34:28;;;;;;;0.75;0.73;;;10.10;1.00;;;;;;5045137;28;20032;-72
2024/02/19 02:36:55;;;;;;;0.10;0.10;;;10.10;1.00;;;;;;5059872;28;20044;-72
2024/02/19 02:39:21;;;;;;;0.10;0.10;;;10.00;1.00;;;;;;5059317;28;20029;-72
2024/02/19 02:41:47;;;;;;;0.32;0.30;;;10.00;1.00;;;;;;5068872;28;20068;-72
2024/02/19 02:44:15;;;;;;;2.20;0.75;;;10.10;1.00;;;;;;5084229;28;20044;-72
2024/02/19 02:46:42;;;;;;;0.10;0.10;;;10.10;1.00;;;;;;5082943;28;20033;-72
2024/02/19 02:49:08;;;;;;;0.30;0.30;;;10.10;1.00;;;;;;5088188;28;20047;-72
2024/02/19 02:51:34;;;;;;;0.10;0.10;;;10.10;1.00;;;;;;5082338;28;20032;-72
2024/02/19 02:54:01;;;;;;;1.55;1.08;;;10.10;1.00;;;;;;5086986;28;20036;-72
2024/02/19 02:56:27;;;;;;;0.20;0.20;;;10.10;1.00;;;;;;5082528;28;20028;-72
2024/02/19 02:58:53;;;;;;;1.25;1.15;;;10.10;1.00;;;;;;5082920;28;20036;-72
2024/02/19 03:01:29;;;;;;;0.47;0.47;;;10.00;1.00;;;;;;5084165;28;20028;-72
2024/02/19 03:03:56;;;;;;;0.22;0.22;;;10.10;1.00;;;;;;5082914;28;20445;-72
2024/02/19 03:06:25;;;;;;;0.80;0.73;;;10.00;1.00;;;;;;5079087;28;20032;-75
2024/02/19 03:08:52;;;;;;;0.40;0.40;;;10.00;1.00;;;;;;5087912;28;20040;-72
2024/02/19 03:11:21;;;;;;;0.15;0.15;;;10.00;1.00;;;;;;5082872;28;20029;-73
2024/02/19 03:13:49;;;;;;;0.70;0.65;;;10.00;1.00;;;;;;5080107;28;20036;-72
2024/02/19 03:16:18;;;;;;;0.57;0.50;;;10.00;1.00;;;;;;5085055;28;20041;-72
2024/02/19 03:18:45;;;;;;;2.70;0.55;;;10.00;1.00;;;;;;5087245;28;20036;-72
2024/02/19 03:21:15;;;;;;;0.75;0.45;;;10.00;1.00;;;;;;5083265;28;20037;-72
2024/02/19 03:23:50;;;;;;;1.17;0.38;;;10.10;1.00;;;;;;5077104;28;20449;-73
2024/02/19 03:26:23;;;;;;;0.30;0.30;;;10.00;1.00;;;;;;5085259;28;20028;-72
2024/02/19 03:28:50;;;;;;;0.65;0.57;;;10.00;99.90;;;;;;5085022;28;20032;-71
2024/02/19 03:31:17;;;;;;;0.20;0.20;;;10.00;1.00;;;;;;5084317;28;20031;-72
2024/02/19 03:33:43;;;;;;;0.45;0.45;;;9.90;1.00;;;;;;5077351;28;20273;-72
2024/02/19 03:36:09;;;;;;;0.43;0.43;;;10.00;99.90;;;;;;5084244;28;20032;-72
2024/02/19 03:38:36;;;;;;;9.07;0.57;;;9.90;99.90;;;;;;5084842;28;20456;-72
2024/02/19 03:41:04;;;;;;;0.30;0.30;;;10.00;99.90;;;;;;5077243;28;20044;-72
2024/02/19 03:43:31;;;;;;;1.75;1.48;;;10.00;99.90;;;;;;5063670;28;20044;-72
2024/02/19 03:45:57;;;;;;;0.10;0.10;;;10.00;99.90;;;;;;5057370;28;20033;-72
2024/02/19 03:48:24;;;;;;;0.65;0.47;;;9.90;99.90;;;;;;5064437;28;20048;-75
2024/02/19 03:50:50;;;;;;;0.22;0.22;;;9.90;99.90;;;;;;5067958;28;20029;-72
2024/02/19 03:53:16;;;;;;;0.10;0.10;;;9.80;99.90;;;;;;5062850;28;20460;-72
2024/02/19 03:55:42;;;;;;;0.75;0.75;;;9.70;99.90;;;;;;5062256;28;20040;-72
2024/02/19 03:58:08;;;;;;;0.10;0.10;;;9.70;99.90;;;;;;5032614;28;20048;-72
2024/02/19 04:00:34;;;;;;;3.40;1.40;;;9.70;99.90;;;;;;5050193;28;20040;-72
2024/02/19 04:03:00;;;;;;;0.25;0.25;;;9.60;99.90;;;;;;5064956;28;20032;-72
2024/02/19 04:05:26;;;;;;;13.10;0.63;;;9.60;99.90;;;;;;5064112;28;20032;-73
2024/02/19 04:07:53;;;;;;;0.10;0.10;;;9.60;99.90;;;;;;5058167;28;20040;-72
2024/02/19 04:10:19;;;;;;;0.10;0.10;;;9.60;99.90;;;;;;5053886;28;20043;-72
2024/02/19 04:12:45;;;;;;;0.20;0.20;;;9.60;99.90;;;;;;5067397;28;20430;-72
2024/02/19 04:15:13;;;;;;;2.78;1.05;;;9.60;99.90;;;;;;5051119;28;20045;-71
2024/02/19 04:17:39;;;;;;;0.55;0.47;;;9.60;99.90;;;;;;5057791;28;20390;-72
2024/02/19 04:20:06;;;;;;;0.30;0.30;;;9.60;99.90;;;;;;5065557;28;20025;-72
2024/02/19 04:22:32;;;;;;;0.20;0.20;;;9.60;99.90;;;;;;5064548;28;20025;-72
2024/02/19 04:24:58;;;;;;;0.10;0.10;;;9.70;99.90;;;;;;5063322;28;20028;-72
2024/02/19 04:27:24;;;;;;;0.10;0.10;;;9.80;99.90;;;;;;5056749;28;20040;-72
2024/02/19 04:29:50;;;;;;;0.55;0.55;;;9.70;99.90;;;;;;5065455;28;20044;-72
2024/02/19 04:32:16;;;;;;;0.10;0.10;;;9.80;99.90;;;;;;5065055;28;20036;-72
2024/02/19 04:34:43;;;;;;;0.50;0.45;;;9.70;99.90;;;;;;5063374;28;20393;-72
2024/02/19 04:37:09;;;;;;;3.92;1.75;;;9.80;99.90;;;;;;5059711;28;20044;-73
2024/02/19 04:39:35;;;;;;;0.20;0.20;;;9.80;99.90;;;;;;5058787;28;20033;-72
2024/02/19 04:42:02;;;;;;;0.20;0.20;;;9.70;99.90;;;;;;5064930;28;20060;-72
2024/02/19 04:44:28;;;;;;;0.57;0.57;;;9.70;99.90;;;;;;5066411;28;20044;-72
2024/02/19 04:46:54;;;;;;;0.47;0.47;;;9.70;99.90;;;;;;5062112;28;20029;-72
2024/02/19 04:49:21;;;;;;;0.10;0.10;;;9.70;99.90;;;;;;5049893;28;20056;-72
2024/02/19 04:51:47;;;;;;;0.30;0.30;;;9.60;99.90;;;;;;5059630;28;20044;-72
2024/02/19 04:54:13;;;;;;;0.10;0.10;;;9.60;99.90;;;;;;5046984;28;20039;-74
2024/02/19 04:56:39;;;;;;;0.20;0.20;;;9.60;99.90;;;;;;5061183;28;20028;-73
2024/02/19 04:59:05;;;;;;;0.30;0.30;;;9.70;99.90;;;;;;5057545;28;20033;-74
2024/02/19 05:01:31;;;;;;;0.15;0.15;;;9.60;99.90;;;;;;5063059;28;20032;-76
2024/02/19 05:03:59;;;;;;;0.17;0.17;;;9.60;99.90;;;;;;5065059;28;20032;-75
2024/02/19 05:06:25;;;;;;;2.20;1.65;;;9.60;99.90;;;;;;5065214;28;20496;-76
2024/02/19 05:08:51;;;;;;;0.10;0.10;;;9.60;99.90;;;;;;5060586;28;20052;-76
2024/02/19 05:11:17;;;;;;;1.70;0.47;;;9.60;99.90;;;;;;5026165;28;20045;-76
2024/02/19 05:13:43;;;;;;;0.15;0.15;;;9.50;99.90;;;;;;5062909;28;20147;-76
2024/02/19 05:16:10;;;;;;;0.40;0.40;;;9.50;99.90;;;;;;5064898;28;20043;-75
2024/02/19 05:18:36;;;;;;;0.30;0.30;;;9.50;99.90;;;;;;5049485;28;20040;-76
2024/02/19 05:21:06;;;;;;;0.17;0.17;;;9.50;99.90;;;;;;5063064;28;20024;-76
2024/02/19 05:23:32;;;;;;;0.30;0.30;;;9.50;99.90;;;;;;5062759;28;20024;-73
2024/02/19 05:26:00;;;;;;;0.13;0.13;;;9.40;99.90;;;;;;5065735;28;20036;-74
2024/02/19 05:28:26;;;;;;;0.90;0.65;;;9.40;99.90;;;;;;5061142;28;20044;-74
2024/02/19 05:30:52;;;;;;;3.00;1.52;;;9.40;99.90;;;;;;5060192;28;20032;-74
2024/02/19 05:33:18;;;;;;;0.28;0.28;;;9.40;99.90;;;;;;5047001;28;20024;-74
2024/02/19 05:35:45;;;;;;;0.20;0.20;;;9.30;99.90;;;;;;5064047;28;20366;-74
2024/02/19 05:38:14;;;;;;;0.20;0.20;;;9.30;99.90;;;;;;5063218;28;20412;-74
2024/02/19 05:40:41;;;;;;;0.43;0.43;;;9.30;99.90;;;;;;5065959;28;20497;-74
2024/02/19 05:43:07;;;;;;;0.30;0.20;;;9.30;99.90;;;;;;5064268;28;20058;-75
2024/02/19 05:45:33;;;;;;;0.10;0.10;;;9.30;99.90;;;;;;5065632;28;20043;-76
2024/02/19 05:47:59;;;;;;;4.30;0.95;;;9.30;99.90;;;;;;5069591;28;20494;-75
2024/02/19 05:50:30;;;;;;;0.10;0.10;;;9.20;99.90;;;;;;5067243;28;20029;-74
2024/02/19 05:52:56;;;;;;;0.10;0.10;;;9.20;99.90;;;;;;5067128;28;20043;-74
2024/02/19 05:55:22;;;;;;;0.10;0.10;;;9.20;99.90;;;;;;5059536;28;20052;-74
2024/02/19 05:57:49;;;;;;;2.08;0.80;;;9.20;99.90;;;;;;5063177;28;20052;-75
2024/02/19 06:00:15;;;;;;;0.10;0.10;;;9.20;99.90;;;;;;5060152;28;20025;-76
2024/02/19 06:02:42;;;;;;;0.50;0.20;;;9.20;99.90;;;;;;5058427;28;20069;-75
2024/02/19 06:05:11;;;;;;;0.10;0.10;;;9.20;99.90;;;;;;5060382;28;20374;-74
2024/02/19 06:07:38;;;;;;;0.85;0.40;;;9.20;99.90;;;;;;5057160;28;20037;-75
2024/02/19 06:10:05;;;;;;;0.75;0.75;;;9.20;81.90;;;;;;5063817;28;20036;-74
2024/02/19 06:12:31;;;;;;;0.10;0.10;;;9.30;50.60;;;;;;5064514;28;20043;-75
2024/02/19 06:14:57;;;;;;;0.10;0.10;;;9.30;50.40;;;;;;5062129;28;20436;-74
2024/02/19 06:17:23;;;;;;;4.63;1.65;;;9.30;45.40;;;;;;5056606;28;20032;-75
2024/02/19 06:19:49;;;;;;;0.10;0.10;;;9.20;28.00;;;;;;5063076;28;20397;-74
2024/02/19 06:22:16;;;;;;;0.57;0.43;;;9.20;1.00;;;;;;5047084;28;20370;-75
2024/02/19 06:24:43;;;;;;;0.10;0.10;;;9.20;1.00;;;;;;5058547;28;20029;-76
2024/02/19 06:27:09;;;;;;;0.10;0.10;;;9.20;1.00;;;;;;5059542;28;20025;-75
2024/02/19 06:29:35;;;;;;;0.10;0.10;;;9.10;1.00;;;;;;5066734;28;20037;-76
2024/02/19 06:32:01;;;;;;;0.10;0.10;;;9.10;1.00;;;;;;5062053;28;20040;-75
2024/02/19 06:34:27;;;;;;;0.10;0.10;;;9.10;1.40;;;;;;5062463;28;20029;-75
2024/02/19 06:36:54;;;;;;;0.10;0.10;;;9.00;8.10;;;;;;5057281;28;20548;-75
2024/02/19 06:39:20;;;;;;;0.30;0.30;;;8.90;1.00;;;;;;5062131;28;20036;-74
2024/02/19 06:41:47;;;;;;;0.10;0.10;;;8.90;1.00;;;;;;5065434;28;20052;-74
2024/02/19 06:44:13;;;;;;;0.10;0.10;;;8.90;1.00;;;;;;5067037;28;20036;-75
2024/02/19 06:46:39;;;;;;;0.10;0.10;;;8.80;1.00;;;;;;5060420;28;20052;-75
2024/02/19 06:49:05;;;;;;;0.25;0.20;;;8.80;1.00;;;;;;5061393;28;20107;-77
2024/02/19 06:51:32;;;;;;;0.10;0.10;;;8.80;1.00;;;;;;5038005;28;20043;-77
2024/02/19 06:53:58;;;;;;;4.10;2.58;;;8.70;1.00;;;;;;5069054;28;20029;-75
2024/02/19 06:56:24;;;;;;;0.63;0.63;;;8.80;1.00;;;;;;5061922;28;20041;-76
2024/02/19 06:58:50;;;;;;;1.90;0.82;;;8.80;1.00;;;;;;5040828;28;20052;-76
2024/02/19 07:01:16;;;;;;;0.10;0.10;;;8.80;1.00;;;;;;5063551;28;20025;-76
2024/02/19 07:03:43;;;;;;;1.00;0.63;;;8.80;1.00;;;;;;5061792;28;20492;-76
2024/02/19 07:06:10;;;;;;;0.10;0.10;;;8.70;1.00;;;;;;5069644;28;20055;-76
2024/02/19 07:08:36;;;;;;;0.10;0.10;;;8.70;1.00;;;;;;5063565;28;20033;-76
2024/02/19 07:11:02;;;;;;;0.20;0.20;;;8.70;1.00;;;;;;5067543;28;20025;-76
2024/02/19 07:13:28;;;;;;;2.17;1.65;;;8.60;1.00;;;;;;5065006;28;20052;-76
2024/02/19 07:15:54;;;;;;;1.98;1.88;;;8.60;1.00;;;;;;5068395;28;20036;-75
2024/02/19 07:18:21;;;;;;;1.50;1.40;;;8.60;1.00;;;;;;5060343;28;20032;-75
2024/02/19 07:20:47;;;;;;;0.43;0.35;;;8.60;1.00;;;;;;5062770;28;20040;-75
2024/02/19 07:23:13;;;;;;;0.10;0.10;;;8.70;1.00;;;;;;5065465;28;20465;-76
2024/02/19 07:25:39;;;;;;;2.20;0.25;;;8.90;1.00;;;;;;5068808;28;20021;-75
2024/02/19 07:28:05;;;;;;;0.30;0.30;;;8.90;1.00;;;;;;5065156;28;20033;-74
2024/02/19 07:30:32;;;;;;;0.10;0.10;;;8.80;1.00;;;;;;5059934;28;20041;-75
2024/02/19 07:32:58;;;;;;;0.20;0.20;;;8.90;1.00;;;;;;5065177;28;20043;-75
2024/02/19 07:35:24;;;;;;;0.20;0.20;;;8.90;1.00;;;;;;5047162;28;20497;-75
2024/02/19 07:37:50;;;;;;;2.08;0.43;;;9.00;1.00;;;;;;5064135;28;20378;-75
2024/02/19 07:40:16;;;;;;;0.20;0.20;;;9.00;1.00;;;;;;5062602;28;20049;-75
2024/02/19 07:42:42;;;;;;;0.10;0.10;;;9.00;1.00;;;;;;5062681;28;20037;-75
2024/02/19 07:45:09;;;;;;;0.55;0.43;;;9.10;1.00;;;;;;5071709;28;20024;-75
2024/02/19 07:47:35;;;;;;;0.10;0.10;;;9.10;1.00;;;;;;5064062;28;20039;-76
2024/02/19 07:50:01;;;;;;;0.10;0.10;;;9.00;99.90;;;;;;5061835;28;20041;-75
2024/02/19 07:52:28;;;;;;;0.88;0.68;;;9.10;1.00;;;;;;5064762;28;20025;-75
2024/02/19 07:54:55;;;;;;;0.15;0.15;;;9.00;99.90;;;;;;5050385;28;20480;-75
2024/02/19 07:57:21;;;;;;;3.92;0.90;;;9.10;1.00;;;;;;5050557;28;20481;-76
2024/02/19 07:59:47;;;;;;;0.22;0.22;;;9.10;1.00;;;;;;5069351;28;20408;-76
2024/02/19 08:02:13;;;;;;;0.57;0.30;;;9.10;1.00;;;;;;5052799;28;20040;-75
2024/02/19 08:04:39;;;;;;;0.35;0.32;;;9.20;1.00;;;;;;5044463;28;20386;-76
2024/02/19 08:07:05;;;;;;;0.90;0.90;;;9.20;1.00;;;;;;5033409;28;20037;-75
2024/02/19 08:09:32;;;;;;;0.10;0.10;;;9.20;99.90;;;;;;5062492;28;20036;-74
2024/02/19 08:11:59;;;;;;;0.10;0.10;;;9.30;99.90;;;;;;5067549;28;20032;-76
2024/02/19 08:14:25;;;;;;;0.13;0.13;;;9.30;99.90;;;;;;5067312;28;20135;-75
2024/02/19 08:16:51;;;;;;;0.98;0.90;;;9.30;99.90;;;;;;5066310;28;20040;-76
2024/02/19 08:19:18;;;;;;;0.20;0.20;;;9.30;99.90;;;;;;5064073;28;20380;-76
2024/02/19 08:21:44;;;;;;;0.10;0.10;;;9.30;99.90;;;;;;5069717;28;20087;-76
2024/02/19 08:24:14;;;;;;;0.10;0.10;;;9.30;99.90;;;;;;5064531;28;20029;-75
2024/02/19 08:26:40;;;;;;;9.45;0.32;;;9.30;99.90;;;;;;5063539;28;20036;-76
2024/02/19 08:29:07;;;;;;;0.10;0.10;;;9.30;99.90;;;;;;5065241;28;20043;-75
2024/02/19 08:31:33;;;;;;;0.45;0.38;;;9.40;99.90;;;;;;5064808;28;20108;-75
2024/02/19 08:33:59;;;;;;;0.10;0.10;;;9.50;99.90;;;;;;5061658;28;20033;-75
2024/02/19 08:36:25;;;;;;;0.43;0.40;;;9.60;99.90;;;;;;5063129;28;20497;-75
2024/02/19 08:38:55;;;;;;;0.10;0.10;;;9.60;99.90;;;;;;5062515;28;20033;-75
2024/02/19 08:41:22;;;;;;;0.10;0.10;;;9.60;99.90;;;;;;5062995;28;20045;-75
2024/02/19 08:43:48;;;;;;;0.40;0.40;;;9.70;99.90;;;;;;5061760;28;20033;-76
2024/02/19 08:46:15;;;;;;;0.10;0.10;;;9.80;99.90;;;;;;5057876;28;20035;-75
2024/02/19 08:48:42;;;;;;;0.13;0.13;;;9.80;99.90;;;;;;5061687;28;20037;-76
2024/02/19 08:51:08;;;;;;;0.10;0.10;;;9.90;99.90;;;;;;5068561;28;20051;-75
2024/02/19 08:53:34;;;;;;;0.10;0.10;;;9.90;99.90;;;;;;5062888;28;20044;-75
2024/02/19 08:56:01;;;;;;;0.17;0.17;;;9.90;99.90;;;;;;5061979;28;20025;-75
2024/02/19 08:58:30;;;;;;;0.10;0.10;;;10.00;99.90;;;;;;5062849;28;20036;-75
2024/02/19 09:00:57;;;;;;;0.10;0.10;;;10.00;99.90;;;;;;5064109;28;20806;-75
2024/02/19 09:03:26;;;;;;;0.10;0.10;;;10.10;99.90;;;;;;5065356;28;20125;-75
2024/02/19 09:05:52;;;;;;;0.30;0.30;;;10.10;99.90;;;;;;5061667;28;20047;-75
2024/02/19 09:08:19;;;;;;;0.10;0.10;;;10.10;99.90;;;;;;5065864;28;20028;-75
2024/02/19 09:10:45;;;;;;;2.83;0.50;;;10.10;99.90;;;;;;5068143;28;20037;-75
2024/02/19 09:13:11;;;;;;;0.10;0.10;;;10.20;99.90;;;;;;5064959;28;20032;-75
2024/02/19 09:15:37;;;;;;;0.10;0.10;;;10.20;99.90;;;;;;5066246;28;20393;-75
2024/02/19 09:18:03;;;;;;;0.10;0.10;;;10.30;99.90;;;;;;5062631;28;20033;-75
2024/02/19 09:20:30;;;;;;;0.57;0.30;;;10.30;85.00;;;;;;5062205;28;20100;-74
2024/02/19 09:22:56;;;;;;;0.20;0.20;;;10.30;82.80;;;;;;5061879;28;20028;-74
2024/02/19 09:25:23;;;;;;;0.10;0.10;;;10.30;75.40;;;;;;5062872;28;20068;-74
2024/02/19 09:27:50;;;;;;;0.10;0.10;;;10.40;89.20;;;;;;5060900;28;20032;-75
2024/02/19 09:30:16;;;;;;;0.32;0.32;;;10.30;95.40;;;;;;5061389;28;20504;-74
2024/02/19 09:32:42;;;;;;;0.20;0.20;;;10.40;94.30;;;;;;5062314;28;20028;-76
2024/02/19 09:35:08;;;;;;;0.10;0.10;;;10.40;82.80;;;;;;5066517;28;20032;-76
2024/02/19 09:37:34;;;;;;;0.10;0.10;;;10.40;68.90;;;;;;5059759;28;20261;-76
2024/02/19 09:40:08;;;;;;;0.10;0.10;;;10.40;99.90;;;;;;5060422;28;20025;-76
2024/02/19 09:42:35;;;;;;;1.08;1.00;;;10.50;99.90;;;;;;5062718;28;20393;-76
2024/02/19 09:45:02;;;;;;;5.72;0.68;;;10.50;69.60;;;;;;5064135;28;20040;-76
2024/02/19 09:47:29;;;;;;;0.10;0.10;;;10.60;92.70;;;;;;5061518;28;20500;-76
2024/02/19 09:49:57;;;;;;;0.10;0.10;;;10.70;96.00;;;;;;5055366;28;20037;-76
2024/02/19 09:52:24;;;;;;;0.10;0.10;;;10.70;56.80;;;;;;5061872;28;20047;-76
2024/02/19 09:54:52;;;;;;;0.10;0.10;;;10.80;38.50;;;;;;5062783;28;20028;-76
2024/02/19 09:57:21;;;;;;;0.82;0.17;;;10.80;38.00;;;;;;5062022;28;20033;-73
2024/02/19 09:59:50;;;;;;;2.83;0.32;;;10.80;26.50;;;;;;5055289;28;20028;-75
2024/02/19 10:02:19;;;;;;;0.10;0.10;;;10.80;24.10;;;;;;5061025;28;20403;-75
2024/02/19 10:04:48;;;;;;;0.10;0.10;;;10.80;32.20;;;;;;5061851;28;20024;-75
2024/02/19 10:07:18;;;;;;;0.10;0.10;;;11.00;32.80;;;;;;5063770;28;20037;-73
2024/02/19 10:09:46;;;;;;;0.10;0.10;;;11.00;27.80;;;;;;5057580;28;20382;-75
2024/02/19 10:12:13;;;;;;;1.13;1.02;;;11.10;54.10;;;;;;5060306;28;20029;-75
2024/02/19 10:14:39;;;;;;;0.10;0.10;;;11.00;15.80;;;;;;5063373;28;20025;-75
2024/02/19 10:17:05;;;;;;;0.10;0.10;;;11.00;42.70;;;;;;5047005;28;20048;-75
2024/02/19 10:19:32;;;;;;;0.10;0.10;;;11.00;39.50;;;;;;5068640;28;20094;-75
2024/02/19 10:21:58;;;;;;;0.17;0.17;;;11.10;65.60;;;;;;5054029;28;20390;-75
2024/02/19 10:24:26;;;;;;;0.10;0.10;;;11.20;51.70;;;;;;5069844;28;20032;-76
2024/02/19 10:26:52;;;;;;;0.10;0.10;;;11.30;33.50;;;;;;5064871;28;20033;-75
2024/02/19 10:29:18;;;;;;;0.10;0.10;;;11.40;53.90;;;;;;5063359;28;20493;-75
2024/02/19 10:31:44;;;;;;;0.10;0.10;;;11.40;54.50;;;;;;5063044;28;20425;-76
2024/02/19 10:34:13;;;;;;;0.10;0.10;;;11.50;59.10;;;;;;5063713;28;20040;-75
2024/02/19 10:36:40;;;;;;;0.30;0.30;;;11.60;22.30;;;;;;5065026;28;20039;-75
2024/02/19 10:39:06;;;;;;;5.43;1.48;;;11.80;66.10;;;;;;5063290;28;20036;-76
2024/02/19 10:41:36;;;;;;;1.60;0.52;;;11.90;18.30;;;;;;5064548;28;20056;-75
2024/02/19 10:44:03;;;;;;;0.10;0.10;;;12.00;36.60;;;;;;5060936;28;20041;-75
2024/02/19 10:46:30;;;;;;;0.28;0.28;;;12.00;16.70;;;;;;5064969;28;20271;-76
2024/02/19 10:48:57;;;;;;;0.15;0.15;;;11.90;1.00;;;;;;5066604;28;20072;-75
2024/02/19 10:51:24;;;;;;;0.00;0.00;;;11.90;20.20;;;;;;5064935;28;20044;-76
2024/02/19 10:54:09;;;;;;;0.10;0.10;;;11.80;16.40;;;;;;5062046;28;20040;-76
2024/02/19 10:56:36;;;;;;;2.28;0.45;;;11.90;15.10;;;;;;5064691;28;20043;-75
2024/02/19 10:59:03;;;;;;;3.50;0.63;;;12.00;1.00;;;;;;5066770;28;20592;-76
2024/02/19 11:01:48;;;;;;;0.63;0.43;;;12.00;1.00;;;;;;5063462;28;20033;-76
2024/02/19 11:04:18;;;;;;;2.85;0.98;;;12.00;10.30;;;;;;5063717;28;20064;-75
2024/02/19 11:06:55;;;;;;;0.10;0.10;;;12.10;1.00;;;;;;5065666;28;20614;-76
2024/02/19 11:09:22;;;;;;;0.15;0.15;;;12.10;1.00;;;;;;5063538;28;20041;-75
2024/02/19 11:11:53;;;;;;;5.07;1.67;;;12.00;1.00;;;;;;5068092;28;20036;-74
2024/02/19 11:14:23;;;;;;;0.30;0.30;;;12.10;1.00;;;;;;5066560;28;20493;-74
2024/02/19 11:16:51;;;;;;;0.50;0.37;;;12.30;1.00;;;;;;5052036;28;20051;-74
2024/02/19 11:19:18;;;;;;;0.60;0.50;;;12.20;1.00;;;;;;5065145;28;21247;-74
2024/02/19 11:21:45;;;;;;;0.10;0.10;;;12.30;1.00;;;;;;5065179;28;20040;-75
2024/02/19 11:24:12;;;;;;;0.10;0.10;;;12.30;1.00;;;;;;5063542;28;20044;-74
2024/02/19 11:26:42;;;;;;;0.20;0.20;;;12.30;1.00;;;;;;5059630;28;20032;-74
2024/02/19 11:29:15;;;;;;;0.83;0.37;;;12.40;1.00;;;;;;5064006;28;20043;-74
2024/02/19 11:31:42;;;;;;;0.50;0.28;;;12.30;1.00;;;;;;5064795;28;20285;-74
2024/02/19 11:34:28;;;;;;;0.82;0.65;;;12.40;1.00;;;;;;5065561;28;20361;-74
2024/02/19 11:37:06;;;;;;;0.10;0.10;;;12.40;1.00;;;;;;5059260;28;20045;-74
2024/02/19 11:39:33;;;;;;;0.22;0.22;;;12.50;1.00;;;;;;5067161;28;20456;-74
2024/02/19 11:42:04;;;;;;;1.55;0.90;;;12.60;1.00;;;;;;5064757;28;20044;-74
2024/02/19 11:44:32;;;;;;;0.10;0.10;;;12.60;1.00;;;;;;5068003;28;20406;-74
2024/02/19 11:46:58;;;;;;;0.10;0.10;;;12.80;1.00;;;;;;5063696;28;20029;-74
2024/02/19 11:49:25;;;;;;;0.10;0.10;;;12.80;1.00;;;;;;5062379;28;20041;-75
2024/02/19 11:51:52;;;;;;;0.10;0.10;;;12.80;1.00;;;;;;5068474;28;20033;-74
2024/02/19 11:54:18;;;;;;;0.10;0.10;;;12.70;1.00;;;;;;5066205;28;20480;-73
2024/02/19 11:56:49;;;;;;;0.25;0.25;;;12.60;1.00;;;;;;5061782;28;20353;-74
2024/02/19 11:59:16;;;;;;;0.10;0.10;;;12.60;1.00;;;;;;5059308;28;20124;-73
2024/02/19 12:01:51;;;;;;;2.05;0.77;;;12.50;1.00;;;;;;5065389;28;20029;-76
2024/02/19 12:04:17;;;;;;;0.10;0.10;;;12.40;1.00;;;;;;5066526;28;20363;-77
2024/02/19 12:06:44;;;;;;;0.22;0.22;;;12.30;1.00;;;;;;5066975;28;20397;-77
2024/02/19 12:09:11;;;;;;;0.22;0.22;;;12.50;1.00;;;;;;5063691;28;20037;-74
2024/02/19 12:11:40;;;;;;;0.10;0.10;;;12.50;1.00;;;;;;5061531;28;20470;-75
2024/02/19 12:14:10;;;;;;;1.55;0.68;;;12.40;1.00;;;;;;5064069;28;20044;-74
2024/02/19 12:16:36;;;;;;;0.45;0.40;;;12.30;1.00;;;;;;5062039;28;20033;-74
2024/02/19 12:19:02;;;;;;;0.10;0.10;;;12.10;1.00;;;;;;5059299;28;20457;-75
2024/02/19 12:21:28;;;;;;;0.10;0.10;;;12.10;1.00;;;;;;5040225;28;20036;-75
2024/02/19 12:23:54;;;;;;;0.15;0.15;;;12.00;1.00;;;;;;5065089;28;20028;-74
2024/02/19 12:26:21;;;;;;;0.10;0.10;;;11.90;1.00;;;;;;5071164;28;20032;-72
2024/02/19 12:28:48;;;;;;;0.10;0.10;;;11.80;1.00;;;;;;5061949;28;20024;-73
2024/02/19 12:31:15;;;;;;;0.05;0.05;;;11.70;1.00;;;;;;5060193;28;20370;-72
2024/02/19 12:33:43;;;;;;;1.27;0.90;;;11.70;1.00;;;;;;5064735;28;20037;-73
2024/02/19 12:36:12;;;;;;;0.43;0.43;;;11.70;1.00;;;;;;5068940;28;20055;-73
2024/02/19 12:38:41;;;;;;;1.27;0.85;;;11.80;1.00;;;;;;5063552;28;20024;-72
2024/02/19 12:41:10;;;;;;;0.10;0.10;;;12.00;1.00;;;;;;5068208;28;20070;-72
2024/02/19 12:43:46;;;;;;;0.10;0.10;;;12.00;1.00;;;;;;5080747;28;20032;-72
2024/02/19 12:46:14;;;;;;;0.10;0.10;;;11.90;3.60;;;;;;5085364;28;20051;-74
2024/02/19 12:48:44;;;;;;;0.20;0.20;;;11.80;12.50;;;;;;5083686;28;20051;-72
2024/02/19 12:51:16;;;;;;;0.47;0.30;;;11.80;19.10;;;;;;5079538;28;20039;-73
2024/02/19 12:53:43;;;;;;;0.20;0.20;;;11.60;55.70;;;;;;5077670;28;20032;-72
2024/02/19 12:56:10;;;;;;;0.30;0.20;;;11.50;57.90;;;;;;5084639;28;20025;-73